createdAt,value
2023-04-02T00:00:27.478Z,99130.48
2023-04-02T00:03:54.246Z,99136.21
2023-04-02T00:07:31.295Z,99141.19
2023-04-02T00:10:37.954Z,99148.03
2023-04-02T00:13:46.924Z,99146.41
2023-04-02T00:16:52.118Z,99151.66
2023-04-02T00:19:58.243Z,99157.12
2023-04-02T00:23:02.150Z,99162.70
2023-04-02T00:26:21.595Z,99163.95
2023-04-02T00:29:24.250Z,99173.97
2023-04-02T00:32:31.785Z,99175.10
2023-04-02T00:35:39.419Z,99182.81
2023-04-02T00:38:44.290Z,99184.39
2023-04-02T00:41:48.117Z,99187.36
2023-04-02T00:44:54.716Z,99191.51
2023-04-02T00:48:00.513Z,99188.20
2023-04-02T00:51:20.037Z,99196.91
2023-04-02T00:54:47.590Z,99198.20
2023-04-02T00:57:51.949Z,99199.84
2023-04-02T01:00:54.667Z,99200.19
2023-04-02T01:04:01.969Z,99210.90
2023-04-02T01:07:12.249Z,99210.04
2023-04-02T01:10:33.456Z,99213.79
2023-04-02T01:14:09.276Z,99218.15
2023-04-02T01:17:28.587Z,99219.18
2023-04-02T01:20:42.677Z,99218.02
2023-04-02T01:24:07.407Z,99228.51
2023-04-02T01:27:18.839Z,99233.31
2023-04-02T01:30:22.120Z,99241.45
2023-04-02T01:33:29.732Z,99239.86
2023-04-02T01:36:51.425Z,99245.04
2023-04-02T01:40:20.144Z,99248.80
2023-04-02T01:43:42.211Z,99256.71
2023-04-02T01:46:48.604Z,99263.21
2023-04-02T01:49:57.129Z,99263.20
2023-04-02T01:53:03.953Z,99269.54
2023-04-02T01:56:07.494Z,99270.88
2023-04-02T01:59:11.367Z,99274.63
2023-04-02T02:02:14.464Z,99274.70
2023-04-02T02:05:21.268Z,99281.96
2023-04-02T02:08:58.494Z,99285.02
2023-04-02T02:12:02.962Z,99289.10
2023-04-02T02:15:16.407Z,99295.98
2023-04-02T02:18:23.658Z,99303.02
2023-04-02T02:21:43.612Z,99308.08
2023-04-02T02:24:47.210Z,99314.15
2023-04-02T02:27:53.030Z,99326.05
2023-04-02T02:31:02.690Z,99329.15
2023-04-02T02:34:16.981Z,99336.30
2023-04-02T02:37:27.507Z,99341.02
2023-04-02T02:40:40.842Z,99347.95
2023-04-02T02:43:51.245Z,99357.62
2023-04-02T02:46:59.488Z,99361.13
2023-04-02T02:50:06.641Z,99363.02
2023-04-02T02:53:24.550Z,99366.79
2023-04-02T02:56:29.866Z,99370.54
2023-04-02T02:59:47.801Z,99378.96
2023-04-02T03:02:52.909Z,99382.05
2023-04-02T03:06:01.856Z,99386.46
2023-04-02T03:09:19.244Z,99391.95
2023-04-02T03:12:46.752Z,99393.61
2023-04-02T03:16:13.030Z,99402.81
2023-04-02T03:19:34.359Z,99405.27
2023-04-02T03:23:19.208Z,99411.29
2023-04-02T03:26:31.807Z,99414.31
2023-04-02T03:29:39.669Z,99418.67
2023-04-02T03:32:44.017Z,99422.04
2023-04-02T03:35:56.326Z,99428.77
2023-04-02T03:39:20.820Z,99432.38
2023-04-02T03:42:26.340Z,99436.39
2023-04-02T03:45:36.755Z,99442.38
2023-04-02T03:48:46.336Z,99446.40
2023-04-02T03:52:02.620Z,99454.23
2023-04-02T03:55:28.832Z,99456.05
2023-04-02T03:58:42.190Z,99465.08
2023-04-02T04:01:55.634Z,99469.52
2023-04-02T04:04:59.196Z,99474.66
2023-04-02T04:08:05.743Z,99480.13
2023-04-02T04:11:17.219Z,99487.63
2023-04-02T04:14:29.000Z,99493.92
2023-04-02T04:17:51.713Z,99497.60
2023-04-02T04:20:59.117Z,99501.06
2023-04-02T04:24:04.152Z,99502.91
2023-04-02T04:27:17.237Z,99511.15
2023-04-02T04:30:43.812Z,99513.38
2023-04-02T04:33:54.924Z,99518.25
2023-04-02T04:37:02.125Z,99522.55
2023-04-02T04:40:20.305Z,99532.77
2023-04-02T04:43:46.458Z,99538.52
2023-04-02T04:47:11.917Z,99547.10
2023-04-02T04:50:24.246Z,99554.13
2023-04-02T04:53:29.230Z,99557.81
2023-04-02T04:56:32.927Z,99560.42
2023-04-02T04:59:49.904Z,99565.60
2023-04-02T05:02:57.570Z,99575.71
2023-04-02T05:06:41.935Z,99584.38
2023-04-02T05:09:57.687Z,99585.81
2023-04-02T05:13:39.375Z,99588.65
2023-04-02T05:17:00.522Z,99601.45
2023-04-02T05:20:28.343Z,99606.86
2023-04-02T05:23:37.479Z,99604.64
2023-04-02T05:26:45.963Z,99612.11
2023-04-02T05:29:57.047Z,99615.45
2023-04-02T05:33:07.997Z,99616.95
2023-04-02T05:36:18.311Z,99621.85
2023-04-02T05:39:23.408Z,99624.69
2023-04-02T05:42:30.939Z,99630.35
2023-04-02T05:45:37.581Z,99637.03
2023-04-02T05:48:43.845Z,99641.67
2023-04-02T05:51:50.796Z,99646.48
2023-04-02T05:55:25.049Z,99649.31
2023-04-02T05:58:37.162Z,99655.84
2023-04-02T06:01:52.777Z,99656.60
2023-04-02T06:05:02.165Z,99662.19
2023-04-02T06:08:11.218Z,99660.63
2023-04-02T06:11:22.475Z,99667.19
2023-04-02T06:14:25.297Z,99673.80
2023-04-02T06:17:28.019Z,99678.17
2023-04-02T06:20:31.055Z,99681.86
2023-04-02T06:23:52.426Z,99686.86
2023-04-02T06:27:06.518Z,99694.69
2023-04-02T06:30:17.330Z,99693.52
2023-04-02T06:33:20.045Z,99695.66
2023-04-02T06:36:25.596Z,99698.11
2023-04-02T06:39:33.644Z,99704.45
2023-04-02T06:42:40.551Z,99707.53
2023-04-02T06:45:48.747Z,99719.33
2023-04-02T06:48:56.901Z,99722.14
2023-04-02T06:52:04.189Z,99728.98
2023-04-02T06:55:27.732Z,99735.44
2023-04-02T06:58:30.733Z,99739.54
2023-04-02T07:01:51.302Z,99746.29
2023-04-02T07:05:02.655Z,99747.88
2023-04-02T07:08:05.788Z,99756.17
2023-04-02T07:11:21.725Z,99757.73
2023-04-02T07:14:24.316Z,99757.60
2023-04-02T07:17:27.075Z,99766.33
2023-04-02T07:20:32.972Z,99770.52
2023-04-02T07:23:35.827Z,99777.67
2023-04-02T07:26:38.913Z,99784.67
2023-04-02T07:29:44.568Z,99788.83
2023-04-02T07:32:47.799Z,99798.43
2023-04-02T07:35:51.800Z,99801.89
2023-04-02T07:38:54.758Z,99807.98
2023-04-02T07:42:03.779Z,99813.34
2023-04-02T07:45:07.046Z,99813.33
2023-04-02T07:48:13.391Z,99821.16
2023-04-02T07:51:21.906Z,99825.98
2023-04-02T07:54:24.529Z,99833.96
2023-04-02T07:57:27.466Z,99839.95
2023-04-02T08:00:30.131Z,99841.79
2023-04-02T08:03:33.008Z,99848.98
2023-04-02T08:06:35.813Z,99848.80
2023-04-02T08:09:38.432Z,99857.42
2023-04-02T08:12:41.044Z,99858.48
2023-04-02T08:15:44.420Z,99864.87
2023-04-02T08:18:47.944Z,99874.06
2023-04-02T08:21:52.034Z,99878.59
2023-04-02T08:24:54.981Z,99883.59
2023-04-02T08:27:57.666Z,99892.90
2023-04-02T08:31:00.945Z,99894.11
2023-04-02T08:34:04.673Z,99897.63
2023-04-02T08:37:09.553Z,99907.33
2023-04-02T08:40:27.401Z,99911.89
2023-04-02T08:43:46.901Z,99916.73
2023-04-02T08:46:55.367Z,99922.83
2023-04-02T08:50:06.805Z,99919.85
2023-04-02T08:53:19.806Z,99918.04
2023-04-02T08:56:43.485Z,99928.42
2023-04-02T08:59:48.780Z,99926.02
2023-04-02T09:03:08.443Z,99930.62
2023-04-02T09:06:16.657Z,99936.50
2023-04-02T09:09:20.050Z,99946.39
2023-04-02T09:12:32.949Z,99949.02
2023-04-02T09:15:36.658Z,99952.48
2023-04-02T09:18:40.400Z,99956.06
2023-04-02T09:22:09.633Z,99959.49
2023-04-02T09:25:19.612Z,99961.03
2023-04-02T09:28:23.686Z,99968.98
2023-04-02T09:31:34.506Z,99970.55
2023-04-02T09:34:37.202Z,99970.27
2023-04-02T09:37:40.473Z,99967.44
2023-04-02T09:40:48.730Z,99976.85
2023-04-02T09:44:21.828Z,99976.67
2023-04-02T09:47:27.440Z,99985.33
2023-04-02T09:50:34.094Z,99981.42
2023-04-02T09:53:41.872Z,99988.53
2023-04-02T09:57:03.798Z,99993.75
2023-04-02T10:00:30.005Z,100000.55
2023-04-02T10:03:35.489Z,100011.46
2023-04-02T10:06:49.833Z,100018.46
2023-04-02T10:09:58.995Z,100021.77
2023-04-02T10:13:29.027Z,100033.25
2023-04-02T10:16:37.086Z,100038.11
2023-04-02T10:19:52.435Z,100043.02
2023-04-02T10:22:55.103Z,100046.39
2023-04-02T10:26:08.270Z,100045.90
2023-04-02T10:29:37.424Z,100045.20
2023-04-02T10:32:46.653Z,100045.51
2023-04-02T10:36:09.333Z,100047.18
2023-04-02T10:39:29.805Z,100049.05
2023-04-02T10:43:08.483Z,100049.81
2023-04-02T10:46:17.525Z,100054.90
2023-04-02T10:49:42.172Z,100062.48
2023-04-02T10:52:52.182Z,100065.27
2023-04-02T10:56:03.636Z,100066.05
2023-04-02T10:59:18.335Z,100070.89
2023-04-02T11:02:41.357Z,100076.16
2023-04-02T11:05:47.141Z,100083.36
2023-04-02T11:08:55.536Z,100090.47
2023-04-02T11:12:01.733Z,100095.98
2023-04-02T11:15:13.879Z,100098.98
2023-04-02T11:18:29.531Z,100105.27
2023-04-02T11:22:06.543Z,100106.29
2023-04-02T11:25:21.963Z,100114.44
2023-04-02T11:28:30.567Z,100115.94
2023-04-02T11:31:33.779Z,100117.19
2023-04-02T11:34:43.036Z,100125.91
2023-04-02T11:37:46.258Z,100129.23
2023-04-02T11:40:50.513Z,100126.64
2023-04-02T11:44:01.186Z,100131.08
2023-04-02T11:47:20.839Z,100133.82
2023-04-02T11:50:36.074Z,100141.02
2023-04-02T11:53:42.729Z,100147.69
2023-04-02T11:56:51.705Z,100152.62
2023-04-02T12:00:21.754Z,100156.56
2023-04-02T12:03:44.445Z,100155.90
2023-04-02T12:07:06.425Z,100156.59
2023-04-02T12:10:19.567Z,100159.56
2023-04-02T12:13:40.628Z,100159.79
2023-04-02T12:16:43.364Z,100162.81
2023-04-02T12:19:54.481Z,100165.27
2023-04-02T12:23:00.690Z,100153.96
2023-04-02T12:26:09.361Z,100166.77
2023-04-02T12:29:28.322Z,100170.77
2023-04-02T12:32:31.414Z,100170.89
2023-04-02T12:35:36.232Z,100173.54
2023-04-02T12:38:54.176Z,100176.99
2023-04-02T12:41:57.101Z,100179.61
2023-04-02T12:45:01.296Z,100185.54
2023-04-02T12:48:06.218Z,100187.00
2023-04-02T12:51:10.764Z,100193.69
2023-04-02T12:54:17.593Z,100193.73
2023-04-02T12:57:41.164Z,100191.34
2023-04-02T13:00:44.046Z,100193.66
2023-04-02T13:04:06.756Z,100195.27
2023-04-02T13:07:19.911Z,100200.23
2023-04-02T13:10:26.263Z,100200.16
2023-04-02T13:13:38.425Z,100202.67
2023-04-02T13:16:41.258Z,100211.42
2023-04-02T13:19:43.857Z,100213.66
2023-04-02T13:22:46.497Z,100209.27
2023-04-02T13:25:50.393Z,100214.08
2023-04-02T13:28:59.693Z,100213.27
2023-04-02T13:32:11.954Z,100218.85
2023-04-02T13:35:14.689Z,100226.38
2023-04-02T13:38:20.639Z,100219.77
2023-04-02T13:41:32.428Z,100228.93
2023-04-02T13:44:39.574Z,100235.01
2023-04-02T13:47:42.190Z,100234.12
2023-04-02T13:50:46.510Z,100239.61
2023-04-02T13:53:54.052Z,100243.67
2023-04-02T13:56:57.713Z,100249.43
2023-04-02T14:00:00.281Z,100248.45
2023-04-02T14:03:11.948Z,100256.80
2023-04-02T14:06:19.921Z,100256.73
2023-04-02T14:09:45.733Z,100262.22
2023-04-02T14:13:11.216Z,100259.40
2023-04-02T14:16:28.186Z,100262.69
2023-04-02T14:19:48.860Z,100270.05
2023-04-02T14:22:57.403Z,100268.94
2023-04-02T14:26:09.213Z,100268.97
2023-04-02T14:29:18.668Z,100270.60
2023-04-02T14:32:29.222Z,100277.55
2023-04-02T14:35:37.116Z,100281.41
2023-04-02T14:38:43.474Z,100284.89
2023-04-02T14:42:04.519Z,100287.76
2023-04-02T14:45:21.799Z,100283.89
2023-04-02T14:48:47.947Z,100289.22
2023-04-02T14:52:04.386Z,100289.41
2023-04-02T14:55:19.436Z,100290.59
2023-04-02T14:58:35.967Z,100288.89
2023-04-02T15:01:43.296Z,100294.55
2023-04-02T15:04:55.930Z,100296.56
2023-04-02T15:08:04.961Z,100293.39
2023-04-02T15:11:36.247Z,100293.60
2023-04-02T15:14:48.715Z,100299.66
2023-04-02T15:17:51.328Z,100301.89
2023-04-02T15:21:07.203Z,100303.84
2023-04-02T15:24:31.980Z,100300.75
2023-04-02T15:27:50.301Z,100300.77
2023-04-02T15:30:59.912Z,100301.14
2023-04-02T15:34:27.398Z,100303.52
2023-04-02T15:37:35.680Z,100307.44
2023-04-02T15:40:56.999Z,100312.67
2023-04-02T15:44:06.588Z,100320.91
2023-04-02T15:47:36.704Z,100316.73
2023-04-02T15:51:31.980Z,100321.04
2023-04-02T15:59:01.614Z,100321.71
2023-04-02T16:02:20.833Z,100328.67
2023-04-02T16:05:38.914Z,100330.90
2023-04-02T16:08:58.718Z,100332.73
2023-04-02T16:12:29.386Z,100339.06
2023-04-02T16:15:39.746Z,100339.45
2023-04-02T16:18:49.997Z,100346.85
2023-04-02T16:22:11.430Z,100350.46
2023-04-02T16:25:19.590Z,100352.92
2023-04-02T16:28:33.761Z,100358.62
2023-04-02T16:31:58.126Z,100358.85
2023-04-02T16:35:41.024Z,100364.16
2023-04-02T16:38:57.165Z,100365.38
2023-04-02T16:42:15.759Z,100371.66
2023-04-02T16:45:24.598Z,100376.45
2023-04-02T16:48:42.955Z,100379.52
2023-04-02T16:51:58.374Z,100384.06
2023-04-02T16:55:25.974Z,100391.11
2023-04-02T16:58:47.726Z,100393.86
2023-04-02T17:02:13.498Z,100397.16
2023-04-02T17:05:53.198Z,100402.27
2023-04-02T17:09:04.322Z,100402.65
2023-04-02T17:12:35.924Z,100404.83
2023-04-02T17:15:40.666Z,100402.65
2023-04-02T17:18:47.737Z,100408.08
2023-04-02T17:21:54.954Z,100404.23
2023-04-02T17:25:04.298Z,100406.87
2023-04-02T17:28:11.504Z,100407.42
2023-04-02T17:31:23.250Z,100412.98
2023-04-02T17:34:25.942Z,100417.91
2023-04-02T17:37:39.798Z,100417.46
2023-04-02T17:40:59.164Z,100423.04
2023-04-02T17:44:23.683Z,100424.23
2023-04-02T17:47:44.718Z,100430.86
2023-04-02T17:50:52.100Z,100431.38
2023-04-02T17:54:03.785Z,100436.79
2023-04-02T17:57:23.230Z,100430.50
2023-04-02T18:04:39.549Z,100446.68
2023-04-02T18:08:26.053Z,100453.31
2023-04-02T18:11:42.991Z,100456.14
2023-04-02T18:14:57.792Z,100460.41
2023-04-02T18:18:21.930Z,100467.60
2023-04-02T18:21:46.426Z,100473.02
2023-04-02T18:25:20.872Z,100476.77
2023-04-02T18:28:51.088Z,100486.30
2023-04-02T18:32:04.768Z,100487.70
2023-04-02T18:35:07.878Z,100496.36
2023-04-02T18:38:37.360Z,100497.48
2023-04-02T18:42:01.630Z,100508.84
2023-04-02T18:45:14.023Z,100511.91
2023-04-02T18:48:26.877Z,100517.20
2023-04-02T18:51:36.669Z,100521.05
2023-04-02T18:55:04.148Z,100526.24
2023-04-02T18:58:16.077Z,100535.93
2023-04-02T19:01:37.443Z,100542.82
2023-04-02T19:04:49.738Z,100545.52
2023-04-02T19:08:02.807Z,100550.69
2023-04-02T19:11:17.871Z,100557.26
2023-04-02T19:14:23.311Z,100567.17
2023-04-02T19:17:39.509Z,100574.64
2023-04-02T19:20:57.114Z,100575.35
2023-04-02T19:24:18.971Z,100581.30
2023-04-02T19:27:53.273Z,100587.62
2023-04-02T19:31:24.743Z,100590.23
2023-04-02T19:34:49.157Z,100601.13
2023-04-02T19:38:09.479Z,100607.80
2023-04-02T19:41:39.426Z,100609.42
2023-04-02T19:44:44.247Z,100618.63
2023-04-02T19:47:46.940Z,100622.24
2023-04-02T19:50:49.735Z,100630.66
2023-04-02T19:53:52.397Z,100636.27
2023-04-02T19:56:55.439Z,100637.35
2023-04-02T19:59:58.048Z,100641.58
2023-04-02T20:03:00.778Z,100648.47
2023-04-02T20:06:21.448Z,100658.17
2023-04-02T20:09:24.139Z,100663.48
2023-04-02T20:12:26.734Z,100667.04
2023-04-02T20:15:29.266Z,100673.11
2023-04-02T20:18:32.080Z,100677.42
2023-04-02T20:21:38.282Z,100683.02
2023-04-02T20:24:42.679Z,100692.24
2023-04-02T20:27:46.133Z,100696.00
2023-04-02T20:30:50.387Z,100702.58
2023-04-02T20:33:59.576Z,100715.31
2023-04-02T20:37:02.577Z,100709.84
2023-04-02T20:40:05.909Z,100716.35
2023-04-02T20:43:09.934Z,100732.91
2023-04-02T20:46:13.289Z,100736.80
2023-04-02T20:49:16.008Z,100738.05
2023-04-02T20:52:18.618Z,100741.80
2023-04-02T20:55:21.814Z,100750.43
2023-04-02T20:58:24.578Z,100748.58
2023-04-02T21:01:29.443Z,100753.55
2023-04-02T21:04:32.000Z,100754.15
2023-04-02T21:07:34.752Z,100756.33
2023-04-02T21:10:37.550Z,100761.79
2023-04-02T21:13:44.211Z,100765.16
2023-04-02T21:16:47.075Z,100774.48
2023-04-02T21:19:49.560Z,100774.89
2023-04-02T21:22:56.636Z,100780.06
2023-04-02T21:26:02.108Z,100779.45
2023-04-02T21:29:05.842Z,100784.45
2023-04-02T21:32:20.365Z,100792.38
2023-04-02T21:35:23.728Z,100791.75
2023-04-02T21:38:26.549Z,100795.31
2023-04-02T21:41:31.921Z,100796.27
2023-04-02T21:44:34.490Z,100796.29
2023-04-02T21:47:37.007Z,100799.14
2023-04-02T21:50:39.576Z,100805.13
2023-04-02T21:53:43.600Z,100807.95
2023-04-02T21:56:47.088Z,100807.98
2023-04-02T21:59:49.658Z,100810.33
2023-04-02T22:02:52.315Z,100813.91
2023-04-02T22:06:22.073Z,100816.08
2023-04-02T22:09:26.781Z,100826.94
2023-04-02T22:12:29.434Z,100828.20
2023-04-02T22:15:33.952Z,100826.31
2023-04-02T22:18:38.124Z,100828.11
2023-04-02T22:21:41.539Z,100829.19
2023-04-02T22:24:44.090Z,100835.02
2023-04-02T22:27:46.779Z,100837.85
2023-04-02T22:30:49.494Z,100842.82
2023-04-02T22:33:53.674Z,100846.72
2023-04-02T22:36:56.310Z,100849.20
2023-04-02T22:40:01.066Z,100846.64
2023-04-02T22:43:03.680Z,100850.89
2023-04-02T22:46:08.925Z,100853.73
2023-04-02T22:49:11.799Z,100856.92
2023-04-02T22:52:14.507Z,100860.31
2023-04-02T22:55:19.234Z,100867.17
2023-04-02T22:58:21.868Z,100865.33
2023-04-02T23:01:28.356Z,100870.27
2023-04-02T23:04:31.070Z,100876.65
2023-04-02T23:07:35.471Z,100876.88
2023-04-02T23:10:38.340Z,100878.33
2023-04-02T23:13:42.068Z,100885.66
2023-04-02T23:16:44.658Z,100888.48
2023-04-02T23:19:47.191Z,100886.62
2023-04-02T23:22:49.764Z,100885.27
2023-04-02T23:26:04.193Z,100889.14
2023-04-02T23:29:06.868Z,100889.17
2023-04-02T23:32:09.445Z,100885.75
2023-04-02T23:35:12.122Z,100885.27
2023-04-02T23:38:15.818Z,100886.52
2023-04-02T23:41:18.429Z,100887.60
2023-04-02T23:44:23.026Z,100886.07
2023-04-02T23:47:25.710Z,100889.73
2023-04-02T23:50:28.273Z,100894.13
2023-04-02T23:53:30.839Z,100897.47
2023-04-02T23:56:33.541Z,100899.07
2023-04-02T23:59:40.369Z,100900.66
